Time;durP1;ratioP1;P1;durP2;ratioP2;P2;SDS_P1;SDS_P2;PMS_P1;PMS_P2;Temp;Humidity;BMP_temperature;BMP_pressure;BME280_temperature;BME280_humidity;BME280_pressure;Samples;Min_cycle;Max_cycle;Signal;HPM_P1;HPM_P2
2023/08/04 00:02:49;;;;;;;4.80;1.30;;;16.60;99.90;;;;;;5077219;28;20062;-77
2023/08/04 00:05:46;;;;;;;4.25;1.40;;;16.50;99.90;;;;;;5077685;28;20097;-78
2023/08/04 00:08:38;;;;;;;5.78;1.52;;;16.50;99.90;;;;;;5075186;28;20142;-79
2023/08/04 00:11:30;;;;;;;6.65;1.20;;;17.20;99.90;;;;;;5061517;28;20449;-79
2023/08/04 00:14:05;;;;;;;4.72;1.23;;;16.40;99.90;;;;;;5058213;28;20136;-77
2023/08/04 00:16:51;;;;;;;4.18;1.27;;;16.40;99.90;;;;;;5060483;28;20051;-78
2023/08/04 00:19:42;;;;;;;;;;;16.30;99.90;;;;;;5062706;28;20049;-80
2023/08/04 00:22:41;;;;;;;3.97;1.13;;;16.30;99.90;;;;;;5040233;28;19928;-79
2023/08/04 00:25:28;;;;;;;3.88;1.15;;;16.30;99.90;;;;;;5046318;28;20487;-79
2023/08/04 00:28:22;;;;;;;4.60;1.38;;;16.30;99.90;;;;;;5040871;28;20045;-78
2023/08/04 00:31:23;;;;;;;3.40;1.02;;;16.30;99.90;;;;;;5063267;28;20051;-79
2023/08/04 00:34:14;;;;;;;5.40;1.30;;;16.30;99.90;;;;;;5060170;28;20044;-79
2023/08/04 00:37:07;;;;;;;3.17;1.08;;;16.20;99.90;;;;;;5058185;28;20502;-79
2023/08/04 00:39:55;;;;;;;2.50;1.10;;;16.10;99.90;;;;;;5061540;28;20055;-81
2023/08/04 00:42:45;;;;;;;2.70;1.10;;;16.20;99.90;;;;;;5043709;28;20063;-80
2023/08/04 00:45:34;;;;;;;4.05;1.10;;;16.20;99.90;;;;;;5059279;28;20044;-78
2023/08/04 00:48:20;;;;;;;6.75;1.30;;;16.90;99.90;;;;;;5061624;28;20059;-79
2023/08/04 00:51:05;;;;;;;3.10;1.15;;;16.30;99.90;;;;;;5076899;28;20752;-79
2023/08/04 00:54:00;;;;;;;3.22;1.27;;;16.30;99.90;;;;;;5043347;28;20512;-78
2023/08/04 00:56:46;;;;;;;5.28;1.25;;;16.30;99.90;;;;;;5058046;28;20052;-79
2023/08/04 00:59:54;;;;;;;2.53;0.90;;;16.20;99.90;;;;;;5073504;28;20052;-81
2023/08/04 01:02:26;;;;;;;4.03;1.00;;;16.20;99.90;;;;;;5058620;28;20040;-79
2023/08/04 01:05:36;;;;;;;1.80;0.90;;;16.20;99.90;;;;;;5057562;28;20187;-78
2023/08/04 01:08:55;;;;;;;2.30;0.90;;;16.20;99.90;;;;;;5059736;28;20043;-82
2023/08/04 01:11:49;;;;;;;3.40;1.03;;;16.20;99.90;;;;;;5076106;28;20044;-81
2023/08/04 01:14:55;;;;;;;2.22;1.00;;;16.10;99.90;;;;;;5074332;28;20298;-78
2023/08/04 01:17:59;;;;;;;2.03;0.98;;;16.10;99.90;;;;;;5025285;28;20298;-80
2023/08/04 01:20:28;;;;;;;3.13;1.08;;;16.20;99.90;;;;;;5068468;28;20048;-80
2023/08/04 01:22:54;;;;;;;2.88;1.00;;;16.20;99.90;;;;;;5006354;28;20059;-79
2023/08/04 01:25:50;;;;;;;4.32;1.20;;;16.20;99.90;;;;;;5042820;28;20052;-78
2023/08/04 01:28:29;;;;;;;4.10;1.20;;;16.20;99.90;;;;;;5073508;28;20290;-79
2023/08/04 01:31:20;;;;;;;4.88;1.20;;;16.30;99.90;;;;;;5056536;28;20101;-78
2023/08/04 01:34:11;;;;;;;4.75;1.60;;;16.30;99.90;;;;;;5054989;28;20068;-79
2023/08/04 01:36:57;;;;;;;6.30;1.55;;;16.30;99.90;;;;;;5068710;28;20120;-79
2023/08/04 01:39:51;;;;;;;5.28;2.00;;;16.30;99.90;;;;;;5060501;28;20666;-82
2023/08/04 01:42:17;;;;;;;4.95;1.70;;;16.40;99.90;;;;;;5063577;28;20043;-80
2023/08/04 01:45:17;;;;;;;4.13;1.65;;;16.40;99.90;;;;;;5018226;28;21048;-79
2023/08/04 01:48:12;;;;;;;4.60;1.75;;;16.40;99.90;;;;;;5021836;28;20451;-79
2023/08/04 01:50:38;;;;;;;4.45;1.70;;;16.40;99.90;;;;;;5020046;28;20052;-81
2023/08/04 01:53:04;;;;;;;4.22;1.92;;;16.40;99.90;;;;;;5004042;28;20234;-80
2023/08/04 01:55:49;;;;;;;10.13;1.83;;;16.40;99.90;;;;;;5003018;28;20491;-80
2023/08/04 02:01:50;;;;;;;4.32;1.70;;;16.50;99.90;;;;;;5019578;28;20041;-82
2023/08/04 02:04:36;;;;;;;6.25;1.80;;;16.50;99.90;;;;;;5018344;28;20061;-78
2023/08/04 02:07:25;;;;;;;6.25;1.70;;;16.50;99.90;;;;;;5016637;28;20132;-79
2023/08/04 02:10:00;;;;;;;5.35;1.67;;;16.50;99.90;;;;;;5005369;28;20779;-79
2023/08/04 02:13:05;;;;;;;7.43;2.22;;;16.50;99.90;;;;;;5019673;28;20102;-78
2023/08/04 02:15:51;;;;;;;7.22;1.98;;;16.90;99.90;;;;;;5041632;28;20048;-79
2023/08/04 02:18:38;;;;;;;6.43;2.08;;;16.60;99.90;;;;;;5077195;28;20048;-79
2023/08/04 02:21:24;;;;;;;6.28;1.98;;;16.50;99.90;;;;;;5046752;28;20044;-80
2023/08/04 02:23:50;;;;;;;;;;;16.50;99.90;;;;;;5060346;28;20239;-79
2023/08/04 02:26:16;;;;;;;7.00;1.87;;;16.50;99.90;;;;;;5058751;28;20344;-79
2023/08/04 02:28:41;;;;;;;6.47;1.88;;;16.50;99.90;;;;;;5060483;28;20290;-79
2023/08/04 02:31:07;;;;;;;8.98;2.08;;;16.40;99.90;;;;;;5013729;28;20047;-83
2023/08/04 02:33:33;;;;;;;7.07;1.92;;;16.40;99.90;;;;;;5045501;28;20090;-80
2023/08/04 02:36:00;;;;;;;2.78;1.10;;;16.40;99.90;;;;;;5059247;28;20132;-79
2023/08/04 02:38:52;;;;;;;3.17;1.10;;;16.40;99.90;;;;;;5064221;28;20048;-80
2023/08/04 02:41:40;;;;;;;3.80;1.30;;;16.10;99.90;;;;;;5060236;28;20126;-79
2023/08/04 02:44:21;;;;;;;4.15;0.98;;;16.30;99.90;;;;;;5047670;28;20052;-81
2023/08/04 02:46:56;;;;;;;2.97;1.10;;;16.30;99.90;;;;;;5076244;28;20107;-80
2023/08/04 02:49:47;;;;;;;3.42;1.25;;;16.40;99.90;;;;;;5072529;28;20460;-79
2023/08/04 02:52:29;;;;;;;6.53;2.25;;;16.40;99.90;;;;;;5054141;28;20052;-80
2023/08/04 02:55:23;;;;;;;3.92;1.60;;;16.40;99.90;;;;;;5076534;28;20055;-81
2023/08/04 02:58:45;;;;;;;5.95;1.77;;;16.90;99.90;;;;;;5077357;28;20039;-79
2023/08/04 03:01:50;;;;;;;6.82;1.60;;;16.40;99.90;;;;;;5064221;28;20059;-79
2023/08/04 03:04:43;;;;;;;1.90;0.90;;;16.30;99.90;;;;;;5060313;28;20041;-78
2023/08/04 03:07:20;;;;;;;3.53;1.15;;;16.30;99.90;;;;;;5043483;28;20064;-79
2023/08/04 03:10:06;;;;;;;1.48;1.00;;;16.20;99.90;;;;;;5077141;28;20051;-80
2023/08/04 03:12:32;;;;;;;2.58;1.10;;;16.20;99.90;;;;;;5064445;28;20516;-80
2023/08/04 03:15:06;;;;;;;3.08;1.15;;;16.20;99.90;;;;;;5043980;28;20048;-79
2023/08/04 03:17:32;;;;;;;2.53;1.15;;;16.10;99.90;;;;;;5059445;28;20052;-80
2023/08/04 03:19:58;;;;;;;4.13;1.38;;;16.10;99.90;;;;;;5059273;28;20368;-79
2023/08/04 03:22:23;;;;;;;9.02;1.40;;;16.10;99.90;;;;;;5058362;28;20072;-78
2023/08/04 03:25:27;;;;;;;2.72;1.20;;;16.60;99.90;;;;;;5045616;28;20104;-79
2023/08/04 03:27:53;;;;;;;3.10;1.30;;;16.10;99.90;;;;;;5061532;28;20567;-81
2023/08/04 03:30:44;;;;;;;2.60;1.20;;;16.20;99.90;;;;;;5046278;28;20056;-80
2023/08/04 03:33:34;;;;;;;7.55;1.80;;;16.20;99.90;;;;;;5076243;28;20051;-79
2023/08/04 03:37:13;;;;;;;3.72;1.55;;;16.20;99.90;;;;;;5078057;28;20038;-80
2023/08/04 03:39:39;;;;;;;3.50;1.48;;;16.20;99.90;;;;;;5064724;28;20143;-79
2023/08/04 03:42:12;;;;;;;3.47;1.30;;;16.30;99.90;;;;;;5061214;28;20135;-79
2023/08/04 03:45:08;;;;;;;3.47;1.50;;;16.30;99.90;;;;;;5063089;28;20339;-80
2023/08/04 03:48:10;;;;;;;4.70;1.40;;;16.30;99.90;;;;;;5044684;28;20534;-78
2023/08/04 03:50:45;;;;;;;2.35;1.23;;;16.30;99.90;;;;;;5078926;28;20074;-80
2023/08/04 03:53:30;;;;;;;3.95;1.98;;;16.30;99.90;;;;;;5046511;28;20544;-80
2023/08/04 03:55:56;;;;;;;4.25;1.70;;;16.30;99.90;;;;;;5060056;28;20088;-80
2023/08/04 03:58:40;;;;;;;4.65;1.65;;;16.30;99.90;;;;;;5076515;28;20048;-79
2023/08/04 04:01:44;;;;;;;3.35;1.58;;;16.30;99.90;;;;;;5058074;28;20045;-80
2023/08/04 04:04:45;;;;;;;6.22;2.03;;;16.30;99.90;;;;;;5038046;28;20067;-82
2023/08/04 04:07:20;;;;;;;6.27;2.03;;;15.30;99.90;;;;;;5021641;28;20049;-79
2023/08/04 04:10:21;;;;;;;5.85;1.80;;;16.30;99.90;;;;;;5037625;28;20647;-80
2023/08/04 04:13:15;;;;;;;6.30;2.10;;;16.30;99.90;;;;;;5021008;28;20531;-80
2023/08/04 04:16:01;;;;;;;5.55;1.23;;;16.20;99.90;;;;;;5024000;28;20135;-79
2023/08/04 04:18:41;;;;;;;3.45;1.30;;;16.20;99.90;;;;;;5002624;28;20403;-79
2023/08/04 04:21:16;;;;;;;3.05;1.13;;;16.10;99.90;;;;;;5023378;28;20048;-79
2023/08/04 04:24:02;;;;;;;1.95;0.85;;;16.10;99.90;;;;;;5002505;28;20057;-82
2023/08/04 04:26:58;;;;;;;2.00;1.17;;;16.10;99.90;;;;;;5021408;28;20091;-79
2023/08/04 04:29:47;;;;;;;3.13;1.40;;;16.00;99.90;;;;;;5027786;28;20060;-81
2023/08/04 04:33:06;;;;;;;4.28;1.70;;;16.10;99.90;;;;;;5008469;28;20064;-78
2023/08/04 04:35:52;;;;;;;4.70;2.17;;;16.10;99.90;;;;;;5038772;28;20048;-80
2023/08/04 04:38:27;;;;;;;4.90;1.77;;;16.20;99.90;;;;;;5029670;28;20075;-81
2023/08/04 04:41:22;;;;;;;7.97;2.00;;;16.20;99.90;;;;;;5055484;28;20059;-79
2023/08/04 04:43:48;;;;;;;4.75;2.13;;;16.30;99.90;;;;;;5048542;28;20070;-80
2023/08/04 04:46:33;;;;;;;5.55;1.95;;;16.30;99.90;;;;;;5060248;28;20052;-80
2023/08/04 04:49:19;;;;;;;7.20;2.03;;;16.30;99.90;;;;;;5065171;28;20048;-79
2023/08/04 04:52:05;;;;;;;;;;;16.30;99.90;;;;;;5057162;28;20407;-79
2023/08/04 04:54:51;;;;;;;4.18;1.80;;;16.30;99.90;;;;;;5058686;28;19926;-79
2023/08/04 04:57:23;;;;;;;4.68;1.70;;;16.40;99.90;;;;;;5078368;28;20073;-79
2023/08/04 05:00:08;;;;;;;4.20;1.70;;;16.40;99.90;;;;;;4985341;28;20055;-78
2023/08/04 05:02:43;;;;;;;2.92;1.52;;;16.40;99.90;;;;;;5059975;28;20052;-81
2023/08/04 05:05:09;;;;;;;2.70;1.60;;;16.40;99.90;;;;;;5044477;28;20051;-78
2023/08/04 05:07:47;;;;;;;2.65;1.80;;;16.40;99.90;;;;;;5076796;28;20056;-81
2023/08/04 05:10:42;;;;;;;;;;;16.50;99.90;;;;;;5047023;28;20052;-78
2023/08/04 05:13:28;;;;;;;3.92;1.70;;;16.50;99.90;;;;;;5047313;28;19920;-80
2023/08/04 05:16:16;;;;;;;3.95;1.83;;;16.50;99.90;;;;;;5076759;28;20619;-81
2023/08/04 05:18:42;;;;;;;3.40;1.70;;;15.60;99.90;;;;;;5045260;28;20048;-78
2023/08/04 05:21:34;;;;;;;4.78;1.48;;;16.50;99.90;;;;;;5040430;28;20629;-79
2023/08/04 05:24:13;;;;;;;2.80;1.63;;;16.50;99.90;;;;;;5078017;28;20066;-77
2023/08/04 05:26:56;;;;;;;3.63;1.45;;;16.50;99.90;;;;;;5060326;28;20048;-80
2023/08/04 05:29:49;;;;;;;4.65;1.55;;;16.40;99.90;;;;;;5042915;28;20089;-78
2023/08/04 05:32:30;;;;;;;5.82;1.77;;;16.40;99.90;;;;;;5079998;28;20410;-78
2023/08/04 05:34:56;;;;;;;2.63;1.65;;;16.40;99.90;;;;;;5062404;28;20044;-80
2023/08/04 05:37:37;;;;;;;3.65;1.60;;;16.30;99.90;;;;;;5046357;28;20048;-77
2023/08/04 05:40:05;;;;;;;3.80;1.77;;;16.40;99.90;;;;;;5047765;28;20133;-79
2023/08/04 05:42:32;;;;;;;5.45;1.90;;;16.40;99.90;;;;;;5047969;28;20040;-79
2023/08/04 05:45:25;;;;;;;5.03;1.60;;;16.30;99.90;;;;;;5045896;28;20041;-78
2023/08/04 05:47:58;;;;;;;2.58;1.50;;;16.40;99.90;;;;;;5078645;28;20047;-78
2023/08/04 05:50:23;;;;;;;3.38;1.95;;;16.40;99.90;;;;;;5048765;28;20146;-77
2023/08/04 05:53:29;;;;;;;3.35;1.73;;;16.40;99.90;;;;;;5060159;28;20055;-76
2023/08/04 05:55:55;;;;;;;4.95;1.52;;;16.50;99.90;;;;;;5063687;28;20048;-81
2023/08/04 05:58:22;;;;;;;2.53;1.38;;;16.40;99.90;;;;;;5028755;28;20505;-77
2023/08/04 06:00:49;;;;;;;4.28;1.50;;;16.40;99.90;;;;;;5056317;28;20126;-77
2023/08/04 06:03:17;;;;;;;3.17;1.50;;;16.40;99.90;;;;;;5041097;28;20200;-77
2023/08/04 06:05:43;;;;;;;2.80;1.38;;;16.40;99.90;;;;;;5043183;28;20150;-78
2023/08/04 06:08:18;;;;;;;;;;;16.40;99.90;;;;;;5058491;28;20056;-76
2023/08/04 06:10:51;;;;;;;2.20;1.00;;;16.40;99.90;;;;;;5056256;28;19930;-77
2023/08/04 06:13:23;;;;;;;3.38;1.25;;;16.30;99.90;;;;;;5030248;28;20237;-77
2023/08/04 06:15:48;;;;;;;3.00;1.33;;;16.30;99.90;;;;;;5056204;28;20051;-77
2023/08/04 06:18:14;;;;;;;3.55;1.50;;;16.20;99.90;;;;;;5057213;28;20121;-78
2023/08/04 06:20:40;;;;;;;5.05;1.38;;;16.20;99.90;;;;;;5076214;28;20135;-79
2023/08/04 06:23:16;;;;;;;6.10;1.95;;;16.20;99.90;;;;;;5044450;28;20044;-80
2023/08/04 06:25:57;;;;;;;6.28;2.10;;;16.20;99.90;;;;;;5046169;28;20051;-77
2023/08/04 06:28:49;;;;;;;5.38;2.30;;;16.20;99.90;;;;;;5028344;28;20056;-77
2023/08/04 06:31:19;;;;;;;6.18;1.80;;;16.30;99.90;;;;;;5077114;28;20044;-76
2023/08/04 06:33:44;;;;;;;6.30;2.00;;;16.30;99.90;;;;;;5013882;28;20063;-76
2023/08/04 06:36:10;;;;;;;11.25;2.42;;;16.40;99.90;;;;;;5028317;28;20075;-74
2023/08/04 06:38:36;;;;;;;6.53;2.10;;;16.50;99.90;;;;;;5078398;28;20060;-76
2023/08/04 06:41:02;;;;;;;6.25;2.13;;;16.60;99.90;;;;;;5063747;28;20101;-75
2023/08/04 06:43:30;;;;;;;11.63;2.92;;;16.70;99.90;;;;;;5041768;28;20140;-73
2023/08/04 06:45:58;;;;;;;9.32;2.60;;;16.80;99.90;;;;;;5015927;28;20257;-76
2023/08/04 06:48:27;;;;;;;7.22;2.40;;;16.90;99.90;;;;;;5081478;28;20043;-75
2023/08/04 06:50:53;;;;;;;7.43;2.15;;;17.00;99.90;;;;;;5047973;28;20045;-75
2023/08/04 06:53:22;;;;;;;9.63;2.65;;;17.10;99.90;;;;;;5051407;28;20141;-76
2023/08/04 06:55:51;;;;;;;5.60;2.10;;;17.10;99.90;;;;;;5046204;28;20043;-76
2023/08/04 06:58:18;;;;;;;8.07;1.98;;;17.20;99.90;;;;;;5034351;28;20066;-77
2023/08/04 07:00:46;;;;;;;5.55;2.40;;;17.30;99.90;;;;;;5062476;28;20048;-75
2023/08/04 07:03:23;;;;;;;7.03;2.10;;;17.40;99.90;;;;;;5079675;28;20097;-75
2023/08/04 07:05:50;;;;;;;6.93;2.22;;;17.50;99.90;;;;;;5063386;28;20058;-75
2023/08/04 07:08:25;;;;;;;7.45;2.60;;;17.50;99.90;;;;;;5042316;28;20052;-75
2023/08/04 07:10:59;;;;;;;11.23;2.60;;;17.60;99.90;;;;;;5033990;28;20108;-76
2023/08/04 07:13:29;;;;;;;10.55;2.83;;;17.60;99.90;;;;;;5048970;28;20082;-76
2023/08/04 07:16:35;;;;;;;6.70;2.03;;;17.70;99.90;;;;;;5069023;28;20127;-76
2023/08/04 07:19:10;;;;;;;6.22;1.73;;;17.70;99.90;;;;;;5076498;28;20479;-76
2023/08/04 07:21:43;;;;;;;6.65;1.75;;;17.70;99.90;;;;;;5045874;28;20047;-76
2023/08/04 07:24:12;;;;;;;4.30;1.70;;;17.70;99.90;;;;;;5045267;28;20090;-76
2023/08/04 07:26:58;;;;;;;4.10;1.83;;;17.80;99.90;;;;;;5062699;28;20034;-76
2023/08/04 07:29:37;;;;;;;6.38;2.13;;;17.80;99.90;;;;;;5060084;28;20685;-76
2023/08/04 07:32:27;;;;;;;7.03;2.10;;;17.80;99.90;;;;;;5062030;28;20549;-76
2023/08/04 07:34:53;;;;;;;12.52;2.20;;;17.80;99.90;;;;;;5048799;28;20166;-77
2023/08/04 07:37:45;;;;;;;4.90;1.70;;;17.80;99.70;;;;;;5060169;28;20056;-75
2023/08/04 07:40:20;;;;;;;6.35;2.25;;;17.90;99.60;;;;;;5046056;28;20045;-76
2023/08/04 07:43:11;;;;;;;6.25;1.98;;;17.80;99.40;;;;;;5073501;28;20109;-77
2023/08/04 07:46:41;;;;;;;5.88;2.00;;;17.80;99.40;;;;;;5074811;28;20051;-75
2023/08/04 07:49:37;;;;;;;7.60;2.28;;;17.80;98.90;;;;;;5047733;28;20527;-76
2023/08/04 07:52:49;;;;;;;7.85;2.10;;;17.90;98.50;;;;;;5030076;28;20426;-77
2023/08/04 07:56:02;;;;;;;7.03;1.92;;;18.00;98.50;;;;;;5063310;28;20105;-76
2023/08/04 07:58:58;;;;;;;6.70;1.95;;;18.10;98.00;;;;;;5062757;28;20117;-76
2023/08/04 08:02:10;;;;;;;8.60;2.22;;;18.20;97.70;;;;;;5075910;28;20044;-77
2023/08/04 08:04:53;;;;;;;5.82;2.25;;;18.20;97.20;;;;;;5055408;28;20162;-77
2023/08/04 08:07:19;;;;;;;4.50;2.08;;;18.50;97.30;;;;;;5042275;28;20048;-80
2023/08/04 08:09:45;;;;;;;6.05;2.33;;;18.80;96.40;;;;;;5006371;28;20048;-77
2023/08/04 08:12:10;;;;;;;5.93;1.90;;;19.10;95.40;;;;;;5075509;28;20162;-76
2023/08/04 08:15:05;;;;;;;8.27;2.35;;;19.30;94.40;;;;;;5057683;28;20459;-76
2023/08/04 08:17:33;;;;;;;7.07;2.20;;;19.40;93.70;;;;;;5057057;28;20060;-78
2023/08/04 08:20:45;;;;;;;7.10;2.20;;;19.50;94.10;;;;;;5018383;28;20060;-78
2023/08/04 08:23:38;;;;;;;7.13;2.08;;;19.40;93.80;;;;;;4989178;28;20073;-76
2023/08/04 08:26:47;;;;;;;10.52;2.40;;;19.40;94.40;;;;;;5000521;28;20295;-78
2023/08/04 08:29:48;;;;;;;8.05;2.00;;;19.30;95.00;;;;;;5000583;28;20081;-80
2023/08/04 08:32:45;;;;;;;6.47;1.92;;;19.20;94.70;;;;;;5000085;28;20116;-78
2023/08/04 08:35:12;;;;;;;9.80;2.15;;;19.00;94.30;;;;;;5000056;28;20053;-77
2023/08/04 08:37:41;;;;;;;7.25;2.00;;;19.00;94.50;;;;;;4981417;28;20543;-78
2023/08/04 08:40:11;;;;;;;8.80;2.00;;;18.90;94.00;;;;;;4994749;28;20500;-80
2023/08/04 08:43:26;;;;;;;11.68;2.55;;;18.90;93.70;;;;;;5003885;28;20456;-77
2023/08/04 08:46:37;;;;;;;8.40;1.83;;;18.90;93.20;;;;;;4982557;28;20357;-82
2023/08/04 08:49:37;;;;;;;5.32;1.83;;;18.90;93.80;;;;;;5000968;28;20381;-82
2023/08/04 08:52:09;;;;;;;8.70;2.08;;;19.00;93.10;;;;;;5018870;28;20046;-82
2023/08/04 08:54:57;;;;;;;5.65;1.70;;;19.00;93.10;;;;;;5021399;28;20056;-80
2023/08/04 08:57:29;;;;;;;8.90;2.30;;;19.10;92.70;;;;;;5029821;28;20056;-80
2023/08/04 09:00:12;;;;;;;7.30;1.70;;;19.10;92.40;;;;;;5075009;28;20051;-80
2023/08/04 09:02:38;;;;;;;4.88;2.00;;;19.30;92.10;;;;;;5061341;28;20467;-81
2023/08/04 09:05:31;;;;;;;8.75;1.90;;;19.40;91.70;;;;;;5046444;28;20078;-81
2023/08/04 09:08:12;;;;;;;4.38;2.40;;;19.70;91.20;;;;;;5058368;28;20045;-81
2023/08/04 09:10:49;;;;;;;6.97;2.03;;;19.80;90.90;;;;;;5043607;28;20051;-75
2023/08/04 09:13:21;;;;;;;7.35;1.77;;;20.10;90.20;;;;;;5059286;28;20109;-77
2023/08/04 09:15:53;;;;;;;9.82;2.00;;;20.30;88.40;;;;;;5057588;28;20123;-76
2023/08/04 09:18:41;;;;;;;7.05;1.77;;;20.60;85.40;;;;;;5056159;28;20098;-76
2023/08/04 09:21:24;;;;;;;8.63;1.92;;;20.70;82.40;;;;;;5072669;28;20414;-76
2023/08/04 09:23:53;;;;;;;5.15;1.60;;;21.00;81.30;;;;;;5046552;28;20196;-76
2023/08/04 09:26:19;;;;;;;8.25;1.95;;;21.00;78.30;;;;;;5062901;28;20072;-76
2023/08/04 09:28:48;;;;;;;5.90;1.77;;;20.80;76.80;;;;;;5057423;28;20045;-76
2023/08/04 09:31:45;;;;;;;4.90;1.88;;;20.80;78.10;;;;;;5050898;28;21035;-75
2023/08/04 09:34:11;;;;;;;6.15;2.05;;;20.90;78.80;;;;;;5044186;28;20090;-76
2023/08/04 09:36:49;;;;;;;5.53;1.90;;;20.90;78.70;;;;;;5041256;28;20082;-76
2023/08/04 09:39:21;;;;;;;5.95;2.00;;;21.10;77.00;;;;;;5011360;28;20068;-75
2023/08/04 09:41:58;;;;;;;6.50;1.90;;;21.30;75.90;;;;;;5029565;28;20086;-79
2023/08/04 09:44:34;;;;;;;6.85;1.80;;;21.50;74.90;;;;;;5040375;28;20101;-80
2023/08/04 09:47:00;;;;;;;6.57;2.10;;;21.60;72.70;;;;;;5061007;28;20063;-81
2023/08/04 09:49:27;;;;;;;7.85;2.00;;;21.50;72.30;;;;;;5055129;28;20044;-82
2023/08/04 09:51:56;;;;;;;6.40;1.92;;;21.60;72.80;;;;;;5038142;28;20047;-81
2023/08/04 09:54:22;;;;;;;6.05;1.92;;;21.60;70.70;;;;;;5056116;28;20057;-81
2023/08/04 09:56:49;;;;;;;6.70;1.95;;;21.90;70.80;;;;;;5057080;28;20036;-81
2023/08/04 09:59:15;;;;;;;5.75;1.65;;;22.20;68.80;;;;;;5073808;28;20050;-81
2023/08/04 10:01:42;;;;;;;4.70;1.70;;;22.40;64.70;;;;;;5063557;28;20388;-81
2023/08/04 10:04:08;;;;;;;4.72;1.50;;;22.60;60.20;;;;;;5062058;28;20056;-80
2023/08/04 10:06:41;;;;;;;4.57;1.40;;;22.70;56.20;;;;;;5048638;28;20052;-78
2023/08/04 10:09:21;;;;;;;5.10;1.85;;;23.10;50.90;;;;;;5065638;28;20063;-79
2023/08/04 10:11:47;;;;;;;6.82;1.70;;;23.40;47.70;;;;;;5061785;28;20493;-80
2023/08/04 10:14:23;;;;;;;4.40;1.70;;;23.50;48.60;;;;;;5049994;28;21829;-80
2023/08/04 10:16:49;;;;;;;4.95;1.30;;;23.70;46.10;;;;;;5061630;28;20139;-79
2023/08/04 10:19:23;;;;;;;4.10;1.38;;;23.60;43.40;;;;;;5003295;28;20047;-79
2023/08/04 10:21:50;;;;;;;3.72;1.40;;;23.60;41.60;;;;;;4995783;28;20056;-79
2023/08/04 10:24:20;;;;;;;3.97;1.30;;;23.70;43.80;;;;;;5055968;28;20049;-78
2023/08/04 10:26:52;;;;;;;2.97;0.88;;;23.80;41.50;;;;;;5022373;28;20048;-79
2023/08/04 10:30:00;;;;;;;3.72;1.25;;;23.80;37.00;;;;;;4985879;28;20268;-79
2023/08/04 10:32:35;;;;;;;3.70;1.30;;;23.90;17.30;;;;;;5028612;28;20094;-76
2023/08/04 10:35:21;;;;;;;5.90;1.38;;;24.10;31.10;;;;;;5039555;28;20259;-77
2023/08/04 10:37:56;;;;;;;;;;;24.30;32.60;;;;;;5038044;28;20860;-76
2023/08/04 10:40:29;;;;;;;3.67;1.20;;;24.50;35.00;;;;;;5007143;28;20010;-76
2023/08/04 10:43:03;;;;;;;6.30;1.33;;;24.50;25.00;;;;;;5022301;28;20119;-76
2023/08/04 10:45:50;;;;;;;4.00;1.23;;;24.60;23.40;;;;;;5042384;28;20102;-76
2023/08/04 10:48:21;;;;;;;3.53;1.10;;;24.50;19.80;;;;;;5054408;28;20044;-77
2023/08/04 10:50:50;;;;;;;4.05;1.30;;;24.40;21.30;;;;;;5038679;28;20059;-75
2023/08/04 10:53:16;;;;;;;4.82;1.50;;;24.30;15.10;;;;;;5022885;28;20045;-76
2023/08/04 10:55:56;;;;;;;5.15;1.17;;;24.20;16.20;;;;;;5024806;28;20053;-75
2023/08/04 10:58:26;;;;;;;4.05;1.13;;;24.40;18.20;;;;;;5037780;28;20058;-82
2023/08/04 11:01:23;;;;;;;4.72;1.10;;;24.50;12.70;;;;;;5023790;28;20048;-79
2023/08/04 11:04:10;;;;;;;3.50;1.10;;;24.70;9.90;;;;;;5043398;28;20143;-80
2023/08/04 11:06:37;;;;;;;3.30;0.95;;;24.80;3.90;;;;;;5031780;28;20060;-81
2023/08/04 11:09:03;;;;;;;4.65;1.02;;;24.90;8.10;;;;;;5043066;28;20037;-83
2023/08/04 11:11:29;;;;;;;3.85;1.10;;;24.90;3.40;;;;;;5043279;28;20037;-80
2023/08/04 11:13:59;;;;;;;4.78;1.10;;;25.00;1.30;;;;;;5043052;28;20510;-79
2023/08/04 11:16:49;;;;;;;3.28;0.93;;;25.10;2.30;;;;;;5011248;28;20094;-81
2023/08/04 11:19:20;;;;;;;5.95;1.10;;;25.20;1.00;;;;;;5048304;28;20057;-79
2023/08/04 11:22:13;;;;;;;3.28;1.00;;;25.00;1.00;;;;;;5044796;28;20033;-79
2023/08/04 11:24:57;;;;;;;5.15;1.23;;;24.80;1.00;;;;;;5046004;28;20044;-81
2023/08/04 11:27:56;;;;;;;4.85;1.35;;;24.90;1.00;;;;;;5060372;28;20376;-80
2023/08/04 11:30:50;;;;;;;4.72;1.15;;;24.80;1.00;;;;;;5021333;28;20062;-79
2023/08/04 11:33:56;;;;;;;5.70;1.00;;;24.80;1.00;;;;;;5023156;28;20042;-80
2023/08/04 11:36:39;;;;;;;3.85;1.20;;;24.70;1.00;;;;;;4994262;28;20721;-79
2023/08/04 11:39:09;;;;;;;4.50;1.20;;;24.90;4.00;;;;;;5022053;28;20053;-79
2023/08/04 11:42:12;;;;;;;5.35;1.55;;;25.00;5.60;;;;;;5023524;28;20061;-80
2023/08/04 11:44:50;;;;;;;4.47;1.50;;;25.00;1.00;;;;;;5008150;28;20058;-80
2023/08/04 11:47:25;;;;;;;4.07;1.13;;;24.80;1.00;;;;;;4967851;28;20113;-79
2023/08/04 11:50:10;;;;;;;4.07;1.33;;;24.60;8.40;;;;;;4966271;28;20057;-81
2023/08/04 11:53:01;;;;;;;4.45;1.38;;;24.70;10.90;;;;;;4964181;28;20078;-79
2023/08/04 11:56:07;;;;;;;7.75;1.88;;;24.70;2.70;;;;;;4966097;28;20123;-82
2023/08/04 11:59:15;;;;;;;3.33;1.58;;;24.60;3.40;;;;;;4983616;28;20201;-81
2023/08/04 12:02:19;;;;;;;3.65;1.27;;;24.20;13.10;;;;;;5003120;28;20049;-79
2023/08/04 12:05:10;;;;;;;7.80;1.90;;;23.90;18.60;;;;;;5009896;28;20152;-81
2023/08/04 12:08:14;;;;;;;6.15;1.70;;;23.60;21.50;;;;;;5007969;28;20067;-81
2023/08/04 12:11:01;;;;;;;6.88;2.00;;;23.40;21.50;;;;;;5006605;28;20069;-80
2023/08/04 12:14:13;;;;;;;4.47;1.55;;;22.80;26.40;;;;;;4991888;28;20061;-79
2023/08/04 12:17:18;;;;;;;6.00;1.52;;;23.80;24.20;;;;;;4982077;28;20126;-79
2023/08/04 12:20:25;;;;;;;5.43;1.63;;;24.00;22.60;;;;;;5028407;28;20055;-80
2023/08/04 12:27:02;;;;;;;5.05;1.83;;;24.90;6.80;;;;;;5016846;28;20048;-79
2023/08/04 12:30:09;;;;;;;6.03;1.90;;;24.90;3.40;;;;;;5044430;28;20060;-79
2023/08/04 12:33:13;;;;;;;6.68;1.70;;;25.10;6.00;;;;;;5046945;28;20111;-79
2023/08/04 12:35:38;;;;;;;5.70;1.60;;;25.20;1.00;;;;;;5027910;28;20055;-80
2023/08/04 12:38:04;;;;;;;6.07;1.65;;;25.00;1.00;;;;;;5010917;28;20053;-80
2023/08/04 12:40:51;;;;;;;5.68;1.58;;;25.10;1.00;;;;;;5054967;28;20094;-80
2023/08/04 12:43:17;;;;;;;6.30;1.73;;;25.10;1.00;;;;;;5045869;28;20048;-80
2023/08/04 12:45:43;;;;;;;6.75;1.80;;;25.90;1.00;;;;;;5043607;28;20043;-80
2023/08/04 12:48:29;;;;;;;6.30;1.70;;;25.00;1.00;;;;;;5039548;28;20037;-81
2023/08/04 12:50:55;;;;;;;5.70;1.85;;;24.90;1.00;;;;;;5043307;28;20183;-80
2023/08/04 12:56:50;;;;;;;4.63;1.65;;;24.90;1.00;;;;;;5002958;28;20091;-80
2023/08/04 12:59:16;;;;;;;5.25;1.40;;;25.10;1.00;;;;;;5027265;28;20099;-81
2023/08/04 13:02:00;;;;;;;5.93;1.60;;;25.30;1.00;;;;;;5022124;28;20123;-80
2023/08/04 13:04:46;;;;;;;3.15;1.50;;;25.70;1.00;;;;;;5024456;28;20122;-81
2023/08/04 13:07:27;;;;;;;5.32;1.60;;;25.80;1.00;;;;;;5042533;28;20052;-79
2023/08/04 13:09:53;;;;;;;5.00;1.42;;;25.70;1.00;;;;;;5024064;28;20051;-80
2023/08/04 13:12:19;;;;;;;6.07;1.85;;;25.90;1.00;;;;;;5027738;28;20032;-80
2023/08/04 13:15:48;;;;;;;5.18;1.95;;;25.90;1.00;;;;;;5056365;28;20066;-83
2023/08/04 13:18:32;;;;;;;4.03;1.40;;;25.70;1.00;;;;;;5038866;28;20049;-79
2023/08/04 13:21:17;;;;;;;5.38;1.70;;;25.90;1.00;;;;;;5043398;28;20430;-80
2023/08/04 13:27:52;;;;;;;5.95;1.55;;;25.90;1.00;;;;;;5038803;28;20567;-81
2023/08/04 13:30:26;;;;;;;7.03;1.45;;;26.20;1.00;;;;;;4960226;28;20062;-80
2023/08/04 13:32:52;;;;;;;5.63;2.05;;;26.20;1.00;;;;;;5032917;28;20944;-81
2023/08/04 13:35:18;;;;;;;6.30;1.70;;;26.10;1.00;;;;;;5003943;28;20041;-82
2023/08/04 13:37:43;;;;;;;4.65;1.70;;;26.00;1.00;;;;;;5008571;28;20041;-82
2023/08/04 13:40:19;;;;;;;6.43;1.73;;;26.90;1.00;;;;;;5021326;28;20045;-81
2023/08/04 13:43:23;;;;;;;5.13;1.63;;;25.80;1.00;;;;;;5039020;28;20044;-80
2023/08/04 13:45:49;;;;;;;4.78;1.58;;;25.70;1.00;;;;;;5004202;28;20049;-82
2023/08/04 13:48:14;;;;;;;3.65;1.67;;;25.50;1.00;;;;;;4998609;28;20048;-78
2023/08/04 13:50:40;;;;;;;10.02;1.63;;;25.60;1.00;;;;;;5018693;28;20049;-78
2023/08/04 13:53:06;;;;;;;6.97;1.95;;;25.90;1.00;;;;;;5020745;28;20079;-78
2023/08/04 13:55:40;;;;;;;5.40;1.65;;;25.90;1.00;;;;;;5012982;28;20142;-78
2023/08/04 13:58:06;;;;;;;3.53;1.60;;;26.10;1.00;;;;;;5048085;28;20052;-80
2023/08/04 14:00:32;;;;;;;8.10;1.98;;;26.30;1.00;;;;;;5023072;28;20173;-78
2023/08/04 14:02:58;;;;;;;4.75;1.75;;;26.30;1.00;;;;;;5022764;28;20053;-81
2023/08/04 14:05:26;;;;;;;5.32;1.70;;;26.20;1.00;;;;;;5038941;28;20468;-80
2023/08/04 14:07:53;;;;;;;6.47;1.83;;;26.10;1.00;;;;;;5021413;28;21332;-79
2023/08/04 14:10:21;;;;;;;5.43;1.60;;;25.70;1.00;;;;;;5023298;28;20505;-80
2023/08/04 14:12:48;;;;;;;5.97;1.58;;;25.30;1.00;;;;;;5035151;28;20056;-79
2023/08/04 14:15:14;;;;;;;7.32;1.85;;;25.00;1.00;;;;;;5067329;28;20052;-80
2023/08/04 14:17:49;;;;;;;6.43;1.73;;;24.90;1.00;;;;;;5053887;28;20057;-80
2023/08/04 14:20:42;;;;;;;3.92;1.35;;;24.90;1.00;;;;;;5045442;28;20048;-79